Time;durP1;ratioP1;P1;durP2;ratioP2;P2;SDS_P1;SDS_P2;PMS_P1;PMS_P2;Temp;Humidity;BMP_temperature;BMP_pressure;BME280_temperature;BME280_humidity;BME280_pressure;Samples;Min_cycle;Max_cycle;Signal;HPM_P1;HPM_P2
2022/04/20 00:02:09;;;;;;;;;;;;;;;18.54;58.88;100734.22;5042108;28;1671;-36
2022/04/20 00:04:35;;;;;;;;;;;;;;;18.52;58.92;100736.16;5034460;28;1902;-36
2022/04/20 00:07:02;;;;;;;;;;;;;;;18.48;58.33;100719.50;5031902;28;1493;-36
2022/04/20 00:09:30;;;;;;;;;;;;;;;18.51;58.59;100738.00;5034922;28;1418;-36
2022/04/20 00:11:56;;;;;;;;;;;;;;;18.49;58.71;100729.25;5035345;28;1744;-36
2022/04/20 00:14:23;;;;;;;;;;;;;;;18.51;58.65;100723.78;5037297;28;1333;-36
2022/04/20 00:16:49;;;;;;;;;;;;;;;18.49;58.16;100715.88;5034916;28;1122;-36
2022/04/20 00:19:15;;;;;;;;;;;;;;;18.47;58.89;100732.06;5033192;28;1915;-36
2022/04/20 00:21:42;;;;;;;;;;;;;;;18.44;58.89;100750.22;5033595;28;1632;-36
2022/04/20 00:24:08;;;;;;;;;;;;;;;18.43;58.21;100735.16;5033418;28;1202;-37
2022/04/20 00:26:36;;;;;;;;;;;;;;;18.44;58.73;100750.22;5032048;28;1910;-36
2022/04/20 00:29:03;;;;;;;;;;;;;;;18.41;59.00;100754.03;5032043;28;2012;-36
2022/04/20 00:31:29;;;;;;;;;;;;;;;18.40;58.74;100746.09;5032167;28;1265;-36
2022/04/20 00:33:55;;;;;;;;;;;;;;;18.41;58.18;100732.59;5032955;28;1263;-36
2022/04/20 00:36:22;;;;;;;;;;;;;;;18.43;58.80;100753.91;5034609;28;1483;-37
2022/04/20 00:38:48;;;;;;;;;;;;;;;18.45;58.84;100752.78;5033093;28;1423;-36
2022/04/20 00:41:15;;;;;;;;;;;;;;;18.49;58.48;100743.50;5033257;28;1321;-36
2022/04/20 00:43:43;;;;;;;;;;;;;;;18.55;58.41;100749.31;5031255;28;1584;-36
2022/04/20 00:46:10;;;;;;;;;;;;;;;18.48;58.76;100723.06;5031915;28;1969;-36
2022/04/20 00:48:38;;;;;;;;;;;;;;;18.46;57.87;100725.03;5031747;28;1290;-36
2022/04/20 00:51:04;;;;;;;;;;;;;;;18.47;58.09;100725.88;5035161;28;1099;-36
2022/04/20 00:53:31;;;;;;;;;;;;;;;18.43;58.04;100727.97;5032128;28;1721;-36
2022/04/20 00:55:57;;;;;;;;;;;;;;;18.39;57.95;100728.38;5031630;28;1897;-36
2022/04/20 00:58:24;;;;;;;;;;;;;;;18.40;58.43;100722.88;5034979;28;1240;-36
2022/04/20 01:00:51;;;;;;;;;;;;;;;18.39;58.03;100726.53;5032780;28;1459;-36
2022/04/20 01:03:18;;;;;;;;;;;;;;;18.35;58.16;100733.13;5032731;28;1447;-36
2022/04/20 01:05:45;;;;;;;;;;;;;;;18.34;58.08;100735.94;5030267;28;1906;-36
2022/04/20 01:08:11;;;;;;;;;;;;;;;18.28;58.06;100734.63;5032171;28;1345;-36
2022/04/20 01:10:38;;;;;;;;;;;;;;;18.35;58.33;100743.00;5030786;28;1605;-36
2022/04/20 01:13:04;;;;;;;;;;;;;;;18.35;57.80;100733.13;5032378;28;1364;-36
2022/04/20 01:15:31;;;;;;;;;;;;;;;17.91;59.67;100742.28;5032245;28;1959;-36
2022/04/20 01:17:59;;;;;;;;;;;;;;;17.56;60.48;100728.13;5032513;28;1336;-36
2022/04/20 01:20:25;;;;;;;;;;;;;;;17.25;60.44;100740.53;5031921;28;1352;-36
2022/04/20 01:22:53;;;;;;;;;;;;;;;17.10;61.08;100746.09;5026303;28;1918;-36
2022/04/20 01:25:20;;;;;;;;;;;;;;;17.07;61.56;100748.19;5031540;28;1913;-36
2022/04/20 01:27:46;;;;;;;;;;;;;;;17.03;61.59;100731.56;5034570;28;1727;-36
2022/04/20 01:30:13;;;;;;;;;;;;;;;17.31;60.94;100729.31;5031929;28;1485;-36
2022/04/20 01:32:39;;;;;;;;;;;;;;;17.85;59.58;100728.44;5031439;28;1451;-36
2022/04/20 01:35:06;;;;;;;;;;;;;;;18.32;57.87;100728.03;5033660;28;1286;-36
2022/04/20 01:37:33;;;;;;;;;;;;;;;18.74;57.41;100729.78;5032313;28;1491;-36
2022/04/20 01:40:01;;;;;;;;;;;;;;;19.02;56.89;100731.78;5033538;28;1726;-36
2022/04/20 01:42:27;;;;;;;;;;;;;;;19.18;55.44;100725.03;5031467;28;1618;-36
2022/04/20 01:44:54;;;;;;;;;;;;;;;19.31;56.27;100744.38;5030079;28;1197;-36
2022/04/20 01:47:20;;;;;;;;;;;;;;;19.00;57.02;100727.50;5031979;28;1902;-36
2022/04/20 01:49:47;;;;;;;;;;;;;;;18.63;57.94;100728.91;5032105;28;1516;-36
2022/04/20 01:52:13;;;;;;;;;;;;;;;18.67;57.19;100714.25;5033699;28;1180;-36
2022/04/20 01:54:40;;;;;;;;;;;;;;;18.69;57.64;100706.09;5032042;28;1320;-36
2022/04/20 01:57:08;;;;;;;;;;;;;;;18.69;57.25;100716.81;5031728;28;1481;-37
2022/04/20 01:59:34;;;;;;;;;;;;;;;18.77;57.12;100705.41;5032195;28;1614;-36
2022/04/20 02:04:45;;;;;;;;;;;;;;;18.88;57.37;100711.56;5033251;28;979;-52
2022/04/20 02:07:12;;;;;;;;;;;;;;;18.75;57.67;100726.13;5034743;28;1964;-58
2022/04/20 02:09:39;;;;;;;;;;;;;;;18.80;56.87;100718.56;5033175;28;1349;-58
2022/04/20 02:12:06;;;;;;;;;;;;;;;18.81;56.73;100714.91;5031896;28;1617;-52
2022/04/20 02:14:34;;;;;;;;;;;;;;;18.87;57.02;100731.28;5030492;28;1313;-58
2022/04/20 02:17:01;;;;;;;;;;;;;;;18.85;56.53;100729.72;5033832;28;1215;-52
2022/04/20 02:19:27;;;;;;;;;;;;;;;18.84;57.62;100730.69;5032879;28;1251;-52
2022/04/20 02:21:54;;;;;;;;;;;;;;;18.79;57.26;100733.78;5031400;28;1169;-58
2022/04/20 02:24:20;;;;;;;;;;;;;;;18.83;57.42;100723.66;5033812;28;1432;-58
2022/04/20 02:26:47;;;;;;;;;;;;;;;18.73;57.65;100712.03;5032588;28;1973;-52
2022/04/20 02:29:13;;;;;;;;;;;;;;;18.76;57.39;100722.47;5031802;28;1513;-53
2022/04/20 02:31:41;;;;;;;;;;;;;;;18.77;57.58;100733.06;5031722;28;1215;-58
2022/04/20 02:34:08;;;;;;;;;;;;;;;18.80;57.63;100742.66;5032390;28;1577;-58
2022/04/20 02:36:35;;;;;;;;;;;;;;;18.88;56.44;100733.00;5033697;28;1319;-58
2022/04/20 02:39:03;;;;;;;;;;;;;;;18.83;56.96;100740.56;5034397;28;1557;-59
2022/04/20 02:41:30;;;;;;;;;;;;;;;18.81;56.63;100752.41;5031578;28;1480;-59
2022/04/20 02:43:56;;;;;;;;;;;;;;;18.77;56.59;100740.25;5035047;28;1173;-53
2022/04/20 02:46:23;;;;;;;;;;;;;;;18.76;56.41;100749.25;5035676;28;1902;-59
2022/04/20 02:48:51;;;;;;;;;;;;;;;18.64;57.26;100746.69;5032243;28;1432;-53
2022/04/20 02:51:18;;;;;;;;;;;;;;;18.58;57.67;100735.63;5033601;28;1268;-53
2022/04/20 02:53:44;;;;;;;;;;;;;;;18.58;57.69;100741.00;5030970;28;1116;-59
2022/04/20 02:56:11;;;;;;;;;;;;;;;18.49;57.06;100722.06;5032224;28;1313;-59
2022/04/20 02:58:37;;;;;;;;;;;;;;;18.47;57.06;100723.19;5032756;28;1262;-59
2022/04/20 03:01:04;;;;;;;;;;;;;;;18.39;57.28;100721.16;5030732;28;1396;-59
2022/04/20 03:03:31;;;;;;;;;;;;;;;18.47;57.71;100718.69;5028144;28;1872;-53
2022/04/20 03:05:59;;;;;;;;;;;;;;;18.49;57.91;100727.41;5019032;28;1971;-53
2022/04/20 03:08:25;;;;;;;;;;;;;;;18.48;57.78;100733.78;5020377;28;1557;-59
2022/04/20 03:10:52;;;;;;;;;;;;;;;18.45;57.77;100725.16;5028267;28;1772;-53
2022/04/20 03:13:19;;;;;;;;;;;;;;;18.42;57.96;100720.06;5023759;28;1519;-58
2022/04/20 03:15:46;;;;;;;;;;;;;;;18.40;57.44;100728.25;5023345;28;1249;-59
2022/04/20 03:18:13;;;;;;;;;;;;;;;18.48;56.89;100741.81;5023608;28;1701;-59
2022/04/20 03:20:39;;;;;;;;;;;;;;;18.47;57.97;100752.66;5021514;28;1061;-53
2022/04/20 03:23:07;;;;;;;;;;;;;;;18.45;57.78;100751.94;5023839;28;1804;-53
2022/04/20 03:25:34;;;;;;;;;;;;;;;18.44;57.01;100740.38;5021919;28;1981;-53
2022/04/20 03:28:00;;;;;;;;;;;;;;;18.40;57.88;100751.47;5024001;28;1579;-53
2022/04/20 03:30:27;;;;;;;;;;;;;;;18.36;57.88;100742.00;5024522;28;1575;-58
2022/04/20 03:32:54;;;;;;;;;;;;;;;18.39;57.49;100741.75;5026726;28;1594;-53
2022/04/20 03:35:21;;;;;;;;;;;;;;;18.38;57.79;100742.72;5027130;28;996;-59
2022/04/20 03:37:47;;;;;;;;;;;;;;;18.41;57.79;100740.63;5024995;28;1745;-59
2022/04/20 03:40:15;;;;;;;;;;;;;;;18.41;57.44;100756.69;5025059;28;1669;-53
2022/04/20 03:42:42;;;;;;;;;;;;;;;18.31;57.69;100736.22;5018763;28;1607;-59
2022/04/20 03:45:08;;;;;;;;;;;;;;;18.32;57.24;100725.34;5028621;28;1607;-53
2022/04/20 03:47:35;;;;;;;;;;;;;;;18.32;57.95;100738.72;5029461;28;1903;-54
2022/04/20 03:50:02;;;;;;;;;;;;;;;18.26;58.03;100740.13;5025077;28;1486;-53
2022/04/20 03:52:28;;;;;;;;;;;;;;;18.35;57.83;100756.38;5031825;28;1725;-54
2022/04/20 03:54:55;;;;;;;;;;;;;;;18.36;57.94;100750.88;5030326;28;1379;-53
2022/04/20 03:57:23;;;;;;;;;;;;;;;18.35;57.78;100756.38;5025357;28;1475;-58
2022/04/20 03:59:49;;;;;;;;;;;;;;;18.36;57.53;100763.41;5028259;28;1327;-53
2022/04/20 04:02:17;;;;;;;;;;;;;;;18.31;57.41;100747.75;5026962;28;1504;-58
2022/04/20 04:04:43;;;;;;;;;;;;;;;18.31;57.70;100749.59;5027696;28;982;-58
2022/04/20 04:07:10;;;;;;;;;;;;;;;18.31;57.67;100752.28;5022133;28;1906;-59
2022/04/20 04:09:38;;;;;;;;;;;;;;;18.39;57.83;100752.47;5025555;28;1308;-53
2022/04/20 04:12:05;;;;;;;;;;;;;;;18.49;57.11;100764.06;5027152;28;1602;-54
2022/04/20 04:14:37;;;;;;;;;;;;;;;18.56;57.43;100748.31;5027619;28;1446;-53
2022/04/20 04:17:03;;;;;;;;;;;;;;;18.80;56.38;100759.63;5026089;28;1335;-53
2022/04/20 04:19:30;;;;;;;;;;;;;;;19.26;54.76;100750.16;5026228;28;1071;-53
2022/04/20 04:21:56;;;;;;;;;;;;;;;19.85;52.94;100748.41;5034265;28;1815;-53
2022/04/20 04:27:05;;;;;;;;;;;;;;;20.30;52.88;100752.34;5020917;28;2024;-54
2022/04/20 04:29:33;;;;;;;;;;;;;;;19.75;53.21;100757.47;5016941;28;1442;-59
2022/04/20 04:32:00;;;;;;;;;;;;;;;18.74;56.25;100784.22;5026028;28;1031;-58
2022/04/20 04:34:27;;;;;;;;;;;;;;;17.98;58.22;100789.75;5029726;28;1776;-59
2022/04/20 04:36:54;;;;;;;;;;;;;;;18.24;57.20;100787.59;5019970;28;1745;-53
2022/04/20 04:39:22;;;;;;;;;;;;;;;18.05;56.47;100798.16;5025902;28;1095;-53
2022/04/20 04:41:48;;;;;;;;;;;;;;;17.92;57.95;100800.97;5027921;28;1734;-58
2022/04/20 04:44:15;;;;;;;;;;;;;;;18.17;57.35;100801.63;5024929;28;1555;-52
2022/04/20 04:49:27;;;;;;;;;;;;;;;19.04;55.56;100795.97;5029319;28;1564;-59
2022/04/20 04:51:54;;;;;;;;;;;;;;;19.52;55.04;100813.16;4980857;28;11058;-55
2022/04/20 04:54:20;;;;;;;;;;;;;;;19.70;55.24;100803.47;5025097;28;1650;-59
2022/04/20 04:56:47;;;;;;;;;;;;;;;19.83;56.78;100808.59;5026795;28;1641;-59
2022/04/20 04:59:13;;;;;;;;;;;;;;;20.02;55.44;100811.28;5027838;28;1057;-63
2022/04/20 05:01:40;;;;;;;;;;;;;;;20.16;55.61;100798.44;5028074;28;1627;-64
2022/04/20 05:04:08;;;;;;;;;;;;;;;20.04;55.62;100800.41;5029305;28;1400;-56
2022/04/20 05:06:35;;;;;;;;;;;;;;;19.85;55.48;100790.50;5030817;28;1898;-63
2022/04/20 05:09:01;;;;;;;;;;;;;;;19.30;57.81;100790.97;5025657;28;1467;-62
2022/04/20 05:11:28;;;;;;;;;;;;;;;19.17;57.91;100809.13;4967428;28;11172;-63
2022/04/20 05:13:55;;;;;;;;;;;;;;;19.33;57.32;100804.09;5046285;28;1614;-64
2022/04/20 05:16:22;;;;;;;;;;;;;;;19.43;58.20;100796.91;5050228;28;1647;-62
2022/04/20 05:18:49;;;;;;;;;;;;;;;19.39;58.42;100790.13;5055601;28;1340;-62
2022/04/20 05:21:18;;;;;;;;;;;;;;;19.59;57.02;100796.38;5055787;28;1663;-58
2022/04/20 05:23:44;;;;;;;;;;;;;;;19.57;56.76;100784.09;5055362;28;1384;-60
2022/04/20 05:26:11;;;;;;;;;;;;;;;19.79;56.89;100785.72;5048782;28;1906;-60
2022/04/20 05:28:37;;;;;;;;;;;;;;;19.80;57.02;100782.06;5044131;28;1877;-52
2022/04/20 05:31:04;;;;;;;;;;;;;;;19.83;58.12;100777.22;5056273;28;1446;-54
2022/04/20 05:33:30;;;;;;;;;;;;;;;19.88;57.23;100773.31;5050706;28;1441;-54
2022/04/20 05:35:57;;;;;;;;;;;;;;;20.00;57.28;100783.75;5048899;28;1073;-66
2022/04/20 05:43:53;;;;;;;;;;;;;;;19.92;58.09;100780.09;5060392;28;1710;-61
2022/04/20 05:46:19;;;;;;;;;;;;;;;19.90;57.15;100774.00;5050910;28;1973;-54
2022/04/20 05:48:46;;;;;;;;;;;;;;;19.88;57.43;100784.03;5042660;28;1565;-54
2022/04/20 05:51:13;;;;;;;;;;;;;;;19.73;57.49;100776.38;5068648;28;1465;-60
2022/04/20 05:53:41;;;;;;;;;;;;;;;19.83;57.99;100773.69;5047557;28;1747;-55
2022/04/20 05:56:08;;;;;;;;;;;;;;;19.75;58.87;100757.47;5048912;28;1414;-59
2022/04/20 05:58:34;;;;;;;;;;;;;;;19.90;58.36;100772.16;5053253;28;1739;-58
2022/04/20 06:01:01;;;;;;;;;;;;;;;19.82;58.49;100764.81;5047543;28;1550;-57
2022/04/20 06:03:27;;;;;;;;;;;;;;;19.75;58.09;100760.97;5048364;28;1565;-56
2022/04/20 06:05:54;;;;;;;;;;;;;;;19.78;57.64;100766.09;5055262;28;1526;-62
2022/04/20 06:08:21;;;;;;;;;;;;;;;19.91;57.83;100751.53;5048337;28;1906;-62
2022/04/20 06:10:48;;;;;;;;;;;;;;;19.95;58.15;100759.16;5051341;28;1685;-59
2022/04/20 06:13:16;;;;;;;;;;;;;;;19.84;58.73;100746.72;5044394;28;1635;-55
2022/04/20 06:15:42;;;;;;;;;;;;;;;19.83;57.75;100734.28;5048505;28;1178;-59
2022/04/20 06:18:09;;;;;;;;;;;;;;;19.84;57.32;100738.69;5047834;28;1696;-55
2022/04/20 06:20:35;;;;;;;;;;;;;;;19.91;57.61;100730.06;5046873;28;1090;-56
2022/04/20 06:23:02;;;;;;;;;;;;;;;19.84;57.34;100733.31;5049135;28;1800;-59
2022/04/20 06:25:28;;;;;;;;;;;;;;;19.95;57.38;100743.03;5043419;28;1289;-55
2022/04/20 06:27:56;;;;;;;;;;;;;;;19.92;57.13;100737.97;5042080;28;1969;-59
2022/04/20 06:30:23;;;;;;;;;;;;;;;19.94;57.02;100740.53;5047319;28;1279;-59
2022/04/20 06:32:49;;;;;;;;;;;;;;;19.91;57.79;100735.44;5043400;28;1588;-55
2022/04/20 06:35:16;;;;;;;;;;;;;;;19.92;56.98;100732.59;5046367;28;1054;-59
2022/04/20 06:37:42;;;;;;;;;;;;;;;19.97;57.86;100719.59;5048143;28;1517;-59
2022/04/20 06:40:09;;;;;;;;;;;;;;;20.04;57.12;100725.25;5046810;28;1711;-54
2022/04/20 06:42:36;;;;;;;;;;;;;;;20.09;56.85;100731.03;5043977;28;1585;-55
2022/04/20 06:45:05;;;;;;;;;;;;;;;20.07;58.02;100727.63;5045675;28;1027;-60
2022/04/20 06:47:33;;;;;;;;;;;;;;;20.11;57.06;100721.00;5034469;28;1981;-54
2022/04/20 06:49:59;;;;;;;;;;;;;;;20.09;57.74;100722.97;5046029;28;1656;-55
2022/04/20 07:00:40;;;;;;;;;;;;;;;20.13;57.54;100716.31;5043704;28;1402;-59
2022/04/20 07:03:07;;;;;;;;;;;;;;;20.14;57.22;100704.59;5044355;28;1222;-59
2022/04/20 07:05:34;;;;;;;;;;;;;;;20.19;57.69;100715.78;5047340;28;1059;-59
2022/04/20 07:08:01;;;;;;;;;;;;;;;20.20;56.72;100709.41;5049762;28;1906;-55
2022/04/20 07:10:28;;;;;;;;;;;;;;;20.20;56.78;100708.56;5046715;28;1111;-59
2022/04/20 07:12:55;;;;;;;;;;;;;;;20.17;57.05;100698.94;5048019;28;1624;-59
2022/04/20 07:15:21;;;;;;;;;;;;;;;20.16;56.61;100705.31;5050627;28;1273;-55
2022/04/20 07:17:49;;;;;;;;;;;;;;;20.12;56.29;100690.47;5045485;28;1557;-55
2022/04/20 07:20:18;;;;;;;;;;;;;;;20.08;56.56;100705.19;5047279;28;1082;-55
2022/04/20 07:22:45;;;;;;;;;;;;;;;20.02;57.71;100703.09;5044584;28;1728;-55
2022/04/20 07:25:12;;;;;;;;;;;;;;;20.04;57.76;100695.72;5048177;28;1274;-55
2022/04/20 07:27:38;;;;;;;;;;;;;;;20.03;56.66;100702.06;5045971;28;1968;-60
2022/04/20 07:30:05;;;;;;;;;;;;;;;20.02;57.92;100686.97;5047437;28;1557;-59
2022/04/20 07:32:32;;;;;;;;;;;;;;;20.06;56.99;100710.69;5048631;28;1569;-59
2022/04/20 07:34:59;;;;;;;;;;;;;;;20.02;57.23;100706.59;5048487;28;1006;-54
2022/04/20 07:37:26;;;;;;;;;;;;;;;20.01;56.93;100693.31;5042011;28;1676;-55
2022/04/20 07:39:53;;;;;;;;;;;;;;;20.08;56.51;100694.44;5046523;28;1613;-59
2022/04/20 07:42:21;;;;;;;;;;;;;;;20.04;57.02;100690.34;5038177;28;983;-54
2022/04/20 07:44:48;;;;;;;;;;;;;;;20.08;57.40;100696.28;5050992;28;1703;-54
2022/04/20 07:47:14;;;;;;;;;;;;;;;19.96;57.10;100687.56;5051987;28;1967;-59
2022/04/20 07:52:26;;;;;;;;;;;;;;;20.07;56.87;100692.75;5041345;28;1699;-59
2022/04/20 07:54:52;;;;;;;;;;;;;;;20.02;56.56;100695.88;5049436;28;1199;-56
2022/04/20 07:57:19;;;;;;;;;;;;;;;20.06;56.26;100683.00;5045389;28;1624;-54
2022/04/20 07:59:46;;;;;;;;;;;;;;;20.04;56.92;100690.34;5049268;28;1510;-59
2022/04/20 08:02:12;;;;;;;;;;;;;;;20.03;56.78;100685.97;5038943;28;1450;-59
2022/04/20 08:04:38;;;;;;;;;;;;;;;19.98;57.34;100685.56;5047184;28;1076;-59
2022/04/20 08:07:05;;;;;;;;;;;;;;;19.99;57.35;100679.19;5051612;28;1914;-55
2022/04/20 08:09:33;;;;;;;;;;;;;;;19.93;56.84;100677.94;5046871;28;1530;-59
2022/04/20 08:12:00;;;;;;;;;;;;;;;19.92;56.38;100670.03;5047168;28;1565;-54
2022/04/20 08:14:26;;;;;;;;;;;;;;;19.88;57.16;100676.69;5048149;28;1561;-54
2022/04/20 08:16:53;;;;;;;;;;;;;;;19.90;56.65;100670.19;5044828;28;1545;-59
2022/04/20 08:19:21;;;;;;;;;;;;;;;19.94;56.53;100676.94;5049859;28;1521;-54
2022/04/20 08:21:47;;;;;;;;;;;;;;;19.90;57.68;100645.19;5046967;28;1502;-55
2022/04/20 08:24:13;;;;;;;;;;;;;;;19.95;57.58;100650.94;5046323;28;1574;-59
2022/04/20 08:26:41;;;;;;;;;;;;;;;19.98;56.15;100678.34;5045948;28;982;-54
2022/04/20 08:29:10;;;;;;;;;;;;;;;19.93;56.23;100679.78;5049407;28;1946;-59
2022/04/20 08:31:36;;;;;;;;;;;;;;;19.90;56.91;100680.06;5048167;28;1767;-58
2022/04/20 08:34:03;;;;;;;;;;;;;;;19.88;56.29;100679.38;5042700;28;1434;-54
2022/04/20 08:36:29;;;;;;;;;;;;;;;19.92;56.16;100686.16;5053554;28;1583;-54
2022/04/20 08:38:56;;;;;;;;;;;;;;;19.88;56.40;100679.38;5045790;28;1538;-59
2022/04/20 08:41:23;;;;;;;;;;;;;;;19.83;56.15;100680.63;5048887;28;1524;-55
2022/04/20 08:43:51;;;;;;;;;;;;;;;19.91;56.20;100671.03;5046703;28;1569;-54
2022/04/20 08:46:18;;;;;;;;;;;;;;;19.84;55.96;100682.31;5047753;28;1391;-54
2022/04/20 08:48:45;;;;;;;;;;;;;;;19.81;56.41;100677.22;5045947;28;1910;-58
2022/04/20 08:51:12;;;;;;;;;;;;;;;19.74;56.67;100665.41;5047319;28;1423;-62
2022/04/20 08:53:38;;;;;;;;;;;;;;;19.69;54.67;100678.34;5052275;28;1438;-58
2022/04/20 08:58:51;;;;;;;;;;;;;;;19.48;54.71;100671.31;5049585;28;1708;-57
2022/04/20 09:01:19;;;;;;;;;;;;;;;19.54;52.96;100685.16;5053177;28;1687;-63
2022/04/20 09:03:46;;;;;;;;;;;;;;;19.73;52.92;100685.16;5054533;28;1597;-54
2022/04/20 09:06:13;;;;;;;;;;;;;;;19.78;52.93;100682.91;5055612;28;1530;-59
2022/04/20 09:08:40;;;;;;;;;;;;;;;19.75;53.86;100663.56;5053231;28;1898;-58
2022/04/20 09:11:07;;;;;;;;;;;;;;;19.65;53.36;100672.41;5054379;28;1717;-55
2022/04/20 09:13:35;;;;;;;;;;;;;;;19.69;53.72;100659.56;5048765;28;1526;-57
2022/04/20 09:16:06;;;;;;;;;;;;;;;19.72;54.81;100678.13;5049517;28;1636;-55
2022/04/20 09:18:33;;;;;;;;;;;;;;;19.78;53.99;100674.84;5051565;28;1589;-60
2022/04/20 09:21:06;;;;;;;;;;;;;;;19.81;54.60;100662.97;5056468;28;1589;-59
2022/04/20 09:23:33;;;;;;;;;;;;;;;19.67;54.13;100666.91;5055777;28;1710;-55
2022/04/20 09:26:07;;;;;;;;;;;;;;;19.59;54.98;100667.63;5045328;28;1872;-59
2022/04/20 09:28:34;;;;;;;;;;;;;;;19.65;55.48;100672.41;5047359;28;1902;-59
2022/04/20 09:31:01;;;;;;;;;;;;;;;19.58;54.59;100665.09;5044416;28;1636;-60
2022/04/20 09:33:43;;;;;;;;;;;;;;;19.54;55.35;100666.38;5045606;28;1565;-55
2022/04/20 09:36:09;;;;;;;;;;;;;;;19.57;55.96;100674.13;5040624;28;986;-55
2022/04/20 09:38:39;;;;;;;;;;;;;;;19.63;54.81;100668.19;5042974;28;1384;-55
2022/04/20 09:41:06;;;;;;;;;;;;;;;19.60;55.62;100661.28;5049953;28;1778;-60
2022/04/20 09:43:33;;;;;;;;;;;;;;;19.53;56.20;100651.25;5045913;28;1624;-60
2022/04/20 09:46:04;;;;;;;;;;;;;;;19.53;54.95;100656.63;5053475;28;1524;-55
2022/04/20 09:51:20;;;;;;;;;;;;;;;19.55;56.28;100654.66;5054758;28;1528;-59
2022/04/20 09:53:49;;;;;;;;;;;;;;;19.53;55.17;100654.78;5044351;28;1153;-55
2022/04/20 09:56:16;;;;;;;;;;;;;;;19.59;55.61;100656.88;5049086;28;1719;-59
2022/04/20 09:58:44;;;;;;;;;;;;;;;19.52;55.78;100658.47;5043979;28;1525;-56
2022/04/20 10:01:24;;;;;;;;;;;;;;;19.50;55.90;100672.97;5047490;28;1517;-55
2022/04/20 10:03:53;;;;;;;;;;;;;;;19.50;56.10;100656.88;5045079;28;1919;-60
2022/04/20 10:06:21;;;;;;;;;;;;;;;19.45;56.20;100643.91;5054394;28;1476;-56
2022/04/20 10:08:48;;;;;;;;;;;;;;;19.47;56.14;100637.41;5049154;28;1992;-60
2022/04/20 10:11:15;;;;;;;;;;;;;;;19.54;55.96;100634.19;5048930;28;1712;-59
2022/04/20 10:13:41;;;;;;;;;;;;;;;19.55;56.76;100641.22;5050793;28;1450;-59
2022/04/20 10:16:09;;;;;;;;;;;;;;;19.46;56.56;100627.69;5044590;28;1569;-55
2022/04/20 10:18:37;;;;;;;;;;;;;;;19.50;56.34;100630.94;5049091;28;1506;-60
2022/04/20 10:21:05;;;;;;;;;;;;;;;19.52;56.86;100628.97;5038824;28;970;-56
2022/04/20 10:23:34;;;;;;;;;;;;;;;19.50;55.70;100622.91;5047440;28;1692;-55
2022/04/20 10:26:01;;;;;;;;;;;;;;;19.50;55.92;100622.03;5045770;28;1568;-55
2022/04/20 10:34:07;;;;;;;;;;;;;;;19.44;56.53;100613.59;5060572;28;1733;-34
2022/04/20 10:36:34;;;;;;;;;;;;;;;19.50;56.72;100625.56;5072546;28;1822;-34
2022/04/20 10:39:22;;;;;;;;;;;;;;;19.60;56.73;100614.84;5071195;28;1728;-34
2022/04/20 10:42:17;;;;;;;;;;;;;;;19.51;56.66;100615.69;5071715;28;1489;-37
2022/04/20 10:44:56;;;;;;;;;;;;;;;19.51;56.04;100640.66;5068753;28;1663;-37
2022/04/20 10:47:25;;;;;;;;;;;;;;;19.53;56.14;100619.06;5068150;28;1629;-37
2022/04/20 10:49:53;;;;;;;;;;;;;;;19.50;57.12;100611.28;5071945;28;1960;-36
2022/04/20 10:52:23;;;;;;;;;;;;;;;19.50;57.16;100613.97;5072376;28;1603;-37
2022/04/20 10:54:51;;;;;;;;;;;;;;;19.56;57.00;100602.72;5071916;28;1505;-37
2022/04/20 10:57:18;;;;;;;;;;;;;;;19.53;55.86;100608.34;5072009;28;998;-36
2022/04/20 11:00:04;;;;;;;;;;;;;;;19.55;56.62;100614.41;5071843;28;1658;-37
2022/04/20 11:02:47;;;;;;;;;;;;;;;19.55;56.11;100601.84;5072019;28;1419;-37
2022/04/20 11:05:14;;;;;;;;;;;;;;;19.54;57.33;100615.41;5072308;28;1593;-37
2022/04/20 11:08:00;;;;;;;;;;;;;;;19.51;57.30;100610.31;5071859;28;2067;-36
2022/04/20 11:10:29;;;;;;;;;;;;;;;19.41;57.34;100578.97;5071874;28;1452;-37
2022/04/20 11:18:43;;;;;;;;;;;;;;;19.50;56.72;100588.03;5071414;28;1611;-36
2022/04/20 11:21:21;;;;;;;;;;;;;;;19.53;56.86;100584.22;5072357;28;1764;-37
2022/04/20 11:23:52;;;;;;;;;;;;;;;19.49;57.51;100580.97;5071891;28;1573;-37
2022/04/20 11:26:21;;;;;;;;;;;;;;;19.53;56.06;100576.16;5071346;28;1754;-37
2022/04/20 11:28:48;;;;;;;;;;;;;;;19.45;57.43;100584.91;5070259;28;1914;-36
2022/04/20 11:31:15;;;;;;;;;;;;;;;19.53;56.13;100578.84;5074128;28;1796;-36
2022/04/20 11:33:41;;;;;;;;;;;;;;;19.58;57.03;100584.63;5059412;28;127750;-37
2022/04/20 11:36:08;;;;;;;;;;;;;;;19.48;56.88;100569.41;5073342;28;1087;-36
2022/04/20 11:38:38;;;;;;;;;;;;;;;19.55;56.73;100585.75;5073642;28;1758;-36
2022/04/20 11:41:05;;;;;;;;;;;;;;;19.45;57.53;100575.03;5072506;28;1826;-37
2022/04/20 11:43:34;;;;;;;;;;;;;;;19.47;57.75;100578.41;5072455;28;1655;-37
2022/04/20 11:46:00;;;;;;;;;;;;;;;19.59;57.02;100556.81;5063967;28;1613;-36
2022/04/20 11:48:27;;;;;;;;;;;;;;;19.51;57.37;100562.88;5072004;28;1905;-37
2022/04/20 11:50:57;;;;;;;;;;;;;;;19.53;57.60;100550.19;5072523;28;1561;-37
2022/04/20 11:53:31;;;;;;;;;;;;;;;19.58;56.91;100555.13;5072465;28;1766;-37
2022/04/20 11:55:58;;;;;;;;;;;;;;;19.47;56.93;100551.59;5073753;28;1731;-37
2022/04/20 11:58:24;;;;;;;;;;;;;;;19.56;57.34;100555.28;5075177;28;1222;-36
2022/04/20 12:01:00;;;;;;;;;;;;;;;19.67;56.45;100562.28;5075145;28;1638;-36
2022/04/20 12:03:30;;;;;;;;;;;;;;;19.67;57.29;100552.41;5075425;28;1525;-36
2022/04/20 12:06:00;;;;;;;;;;;;;;;19.68;56.61;100545.22;5076296;28;1146;-36
2022/04/20 12:08:26;;;;;;;;;;;;;;;19.76;56.03;100548.03;5075222;28;1981;-36
2022/04/20 12:10:53;;;;;;;;;;;;;;;19.79;56.97;100538.84;5075552;28;1704;-36
2022/04/20 12:13:25;;;;;;;;;;;;;;;19.73;56.38;100551.00;5074871;28;1691;-36
2022/04/20 12:16:01;;;;;;;;;;;;;;;19.67;56.48;100535.47;5074814;28;1317;-36
2022/04/20 12:18:28;;;;;;;;;;;;;;;19.80;56.64;100554.81;5075301;28;1854;-37
2022/04/20 12:20:54;;;;;;;;;;;;;;;19.75;56.63;100546.34;5075568;28;1705;-35
2022/04/20 12:23:21;;;;;;;;;;;;;;;19.78;56.47;100537.19;5075021;28;1927;-36
2022/04/20 12:25:50;;;;;;;;;;;;;;;19.65;57.68;100537.44;5075482;28;1700;-36
2022/04/20 12:30:59;;;;;;;;;;;;;;;19.62;57.93;100532.38;5072661;28;3248;-36
2022/04/20 12:33:27;;;;;;;;;;;;;;;19.66;58.18;100525.75;5069585;28;1403;-36
2022/04/20 12:36:00;;;;;;;;;;;;;;;19.70;58.23;100508.34;5075776;28;1084;-37
2022/04/20 12:38:27;;;;;;;;;;;;;;;19.81;56.92;100526.13;5075294;28;1587;-37
2022/04/20 12:40:53;;;;;;;;;;;;;;;19.87;56.95;100541.66;5075239;28;1701;-36
2022/04/20 12:43:20;;;;;;;;;;;;;;;19.83;57.85;100533.03;5075179;28;1727;-37
2022/04/20 12:45:46;;;;;;;;;;;;;;;19.73;56.82;100529.53;5075433;28;1457;-37
2022/04/20 12:48:13;;;;;;;;;;;;;;;19.67;58.38;100522.88;5075998;28;1772;-37
2022/04/20 12:50:41;;;;;;;;;;;;;;;19.68;57.43;100523.75;5075269;28;1600;-36
2022/04/20 12:53:08;;;;;;;;;;;;;;;19.74;58.19;100523.19;5074561;28;1641;-37
2022/04/20 12:55:36;;;;;;;;;;;;;;;19.73;58.22;100513.44;5074350;28;1545;-37
2022/04/20 13:03:37;;;;;;;;;;;;;;;19.71;58.00;100502.03;5030040;28;1922;-37
2022/04/20 13:06:10;;;;;;;;;;;;;;;19.79;58.17;100503.97;5074149;28;1675;-37
2022/04/20 13:08:36;;;;;;;;;;;;;;;19.74;57.25;100493.69;5075543;28;1905;-37
2022/04/20 13:11:03;;;;;;;;;;;;;;;19.70;57.91;100499.47;5074245;28;1884;-37
2022/04/20 13:13:31;;;;;;;;;;;;;;;19.65;57.29;100494.53;5074176;28;1635;-37
2022/04/20 13:15:58;;;;;;;;;;;;;;;19.73;58.40;100518.81;5074355;28;1782;-36
2022/04/20 13:18:24;;;;;;;;;;;;;;;19.78;57.98;100511.19;5074568;28;1756;-37
2022/04/20 13:20:51;;;;;;;;;;;;;;;19.71;58.32;100499.34;5075036;28;1796;-36
2022/04/20 13:23:19;;;;;;;;;;;;;;;19.50;58.93;100506.69;5073606;28;1601;-37
2022/04/20 13:28:30;;;;;;;;;;;;;;;19.61;57.02;100501.19;5074260;28;1910;-37
2022/04/20 13:30:57;;;;;;;;;;;;;;;19.57;57.40;100494.41;5073990;28;1650;-36
2022/04/20 13:33:23;;;;;;;;;;;;;;;19.46;58.63;100496.28;5073939;28;1452;-37
2022/04/20 13:35:52;;;;;;;;;;;;;;;19.47;57.77;100492.59;5074861;28;1089;-37
2022/04/20 13:38:20;;;;;;;;;;;;;;;19.51;57.19;100486.94;5074240;28;1638;-37
2022/04/20 13:40:46;;;;;;;;;;;;;;;19.58;56.83;100491.59;5074476;28;1639;-37
2022/04/20 13:43:13;;;;;;;;;;;;;;;19.57;57.03;100494.41;5073879;28;1640;-37